Kezdőlap
METAR-TAF:

METAR-TAF

Repülőterek :

Raton Municipal Airport (Crews Field)

Raton, Új-Mexikó, Amerikai Egyesült Államok

földrajzi szélesség: 36-44-31N, földrajzi hosszúság: 104-39-28W, magasság: 1935 m

Jelenlegi meteorológiai megfigyelések

A jelentés 40 perccel ezelõtt készült, 11:53 UTC
Keleti szél 7 kt
Hőmérséklet -2°C
Páratartalom 74%
Légköri nyomás 1020 hPa
Látótávolság: 16.1 km
Borult 4100 lábon

METAR: KRTN 181153Z AUTO 08007KT 10SM OVC041 M02/M06 A3011 RMK AO2 SLP186 T10221061 10022 21022 53009

Idő: 05:33 (12:33 UTC)


TAF: hiányzik

Meteorológiai megfigyelések és előrejelzések több, mint 4000 repülőtéren (METAR és TAF jelentéseket).

A térképen piros és sárga pontok jelzik az elérhető meteorológiai állomásokat.

Mozgassa az egeret a pont fölött, hogy megjelenjen az állomás neve.

Azután kattintson az időjárási megfigyelések és előrejelzések megtekintéséhez.

A térkép megváltoztatása: kattintson a fekete keresztel jelölt zöld gombra ráközelítéshez, a vonallal jelölt zöld gombra távolításhoz, vagy a zöld nyilakra a szomszédos térképek eléréséhez.


METAR-TAF: